Flight Track Log - Related Links

Times and Time Zones

All times are in EDT time to prevent confusion due to time zone crossing. See the SWA1366 flight status page for this flight to view local times or setup timezone preferences in your user account.

Time Position Orientation Groundspeed Altitude Reporting Facility
EDT Latitude Longitude Course Direction KTS MPH feet Rate Location/Type
Sun 08:17:15 PM 39.8833 -104.6000 90° East 176 203 6,800  Level Denver TRACON
Sun 08:18:15 PM 39.8833 -104.5167 90° East 221 254 8,400 1,722 Climbing Denver TRACON
Sun 08:19:10 PM 39.8747 -104.4333 98° East 255 293 10,100 1,897 Climbing Denver Center
Sun 08:20:12 PM 39.8739 -104.3197 91° East 313 360 12,100 2,274 Climbing Denver Center
Sun 08:21:14 PM 39.8717 -104.1786 91° East 364 419 14,800 2,419 Climbing Denver Center
Sun 08:22:16 PM 39.8719 -104.0383 90° East 388 447 17,100 2,081 Climbing Denver Center
Sun 08:23:18 PM 39.8711 -103.8903 90° East 412 474 19,100 2,032 Climbing Denver Center
Sun 08:24:20 PM 39.8833 -103.7297 84° East 428 493 21,300 2,129 Climbing Denver Center
Sun 08:25:22 PM 39.9042 -103.5575 81° East 435 501 23,500 1,790 Climbing Denver Center
Sun 08:26:24 PM 39.9206 -103.4150 81° East 459 528 25,000 1,584 Climbing Denver Center
Sun 08:27:27 PM 39.9422 -103.2092 82° East 477 549 26,800 1,536 Climbing Denver Center
Sun 08:28:29 PM 39.9628 -103.0308 81° East 497 572 28,200 1,306 Climbing Denver Center
Sun 08:29:31 PM 39.9828 -102.8456 82° East 513 590 29,500 1,355 Climbing Denver Center
Sun 08:30:33 PM 40.0058 -102.6447 81° East 521 600 31,000 726 Climbing Denver Center
Sun 08:31:35 PM 40.0258 -102.4650 82° East 523 602 31,000  Level Denver Center
Sun 08:32:37 PM 40.0450 -102.2536 83° East 524 603 31,000  Level Denver Center
Sun 08:33:39 PM 40.0622 -102.0733 83° East 525 604 31,000 484 Level Denver Center
Sun 08:34:41 PM 40.0850 -101.8625 82° East 527 606 32,000 1,161 Climbing Denver Center
Sun 08:35:43 PM 40.1033 -101.6819 82° East 526 605 33,400 1,366 Climbing Denver Center
Sun 08:36:44 PM 40.1231 -101.4678 83° East 533 613 34,800 780 Climbing Denver Center
Sun 08:37:46 PM 40.1408 -101.2853 83° East 531 611 35,000 629 Climbing Denver Center
Sun 08:38:48 PM 40.1603 -101.0731 83° East 529 609 36,100 968 Climbing Denver Center
Sun 08:39:50 PM 40.1764 -100.8936 83° East 523 602 37,000 435 Climbing Denver Center
Sun 08:40:52 PM 40.1953 -100.6825 83° East 527 606 37,000  Level Denver Center
Sun 08:41:54 PM 40.2203 -100.5053 79° East 522 601 37,000  Level Denver Center
Sun 08:42:56 PM 40.2628 -100.3039 74° East 519 597 37,000  Level Denver Center
Sun 08:43:58 PM 40.2975 -100.1314 75° East 515 593 37,000  Level Denver Center
Sun 08:44:59 PM 40.3372 -99.9308 75° East 511 588 37,000 439 Level Denver Center
Sun 08:46:01 PM 40.3717 -99.7525 76° East 517 595 37,900 871 Climbing Denver Center
Sun 08:47:03 PM 40.3986 -99.5675 79° East 518 596 38,800 532 Climbing Denver Center
Sun 08:48:05 PM 40.4269 -99.3825 79° East 518 596 39,000 130 Climbing Denver Center
Sun 08:48:35 PM 40.4394 -99.3108 77° East 518 596 39,000  Level Minneapolis Center
Sun 08:49:37 PM 40.4717 -99.0900 79° East 517 595 39,000  Level Minneapolis Center
Sun 08:50:39 PM 40.4975 -98.9067 79° East 516 594 39,000  Level Minneapolis Center
Sun 08:51:41 PM 40.5247 -98.7236 79° East 515 593 39,000  Level Minneapolis Center
Sun 08:52:42 PM 40.5467 -98.5775 79° East 514 592 39,000  Level Minneapolis Center
Sun 08:53:45 PM 40.5817 -98.3203 80° East 515 593 39,000  Level Minneapolis Center
Sun 08:54:47 PM 40.6086 -98.1378 79° East 513 590 39,000  Level Minneapolis Center
Sun 08:55:48 PM 40.6336 -97.9536 80° East 514 592 39,000  Level Minneapolis Center
Sun 08:56:50 PM 40.6578 -97.7686 80° East 514 592 39,000  Level Minneapolis Center
Sun 08:57:52 PM 40.6825 -97.5828 80° East 516 594 39,000  Level Minneapolis Center
Sun 08:58:54 PM 40.7083 -97.3975 80° East 516 594 39,000  Level Minneapolis Center
Sun 08:59:56 PM 40.7369 -97.1864 80° East 514 592 39,000  Level Minneapolis Center
Sun 09:00:58 PM 40.7611 -96.9997 80° East 517 595 39,000  Level Minneapolis Center
Sun 09:02:00 PM 40.7842 -96.8153 81° East 514 592 39,000  Level Minneapolis Center
Sun 09:03:02 PM 40.8081 -96.6303 80° East 514 592 39,000  Level Minneapolis Center
Sun 09:04:04 PM 40.8306 -96.4464 81° East 512 589 39,000  Level Minneapolis Center
Sun 09:05:06 PM 40.8575 -96.2242 81° East 513 590 39,000  Level Minneapolis Center
Sun 09:06:08 PM 40.8808 -96.0400 80° East 513 590 39,000  Level Minneapolis Center
Sun 09:07:10 PM 40.9019 -95.8547 81° East 514 592 39,000  Level Minneapolis Center
Sun 09:08:12 PM 40.9250 -95.6683 81° East 516 594 39,000  Level Minneapolis Center
Sun 09:09:14 PM 40.9469 -95.4808 81° East 520 598 39,000  Level Minneapolis Center
Sun 09:10:16 PM 40.9733 -95.2558 81° East 520 598 39,000  Level Minneapolis Center
Sun 09:11:18 PM 40.9947 -95.0681 81° East 519 597 39,000  Level Minneapolis Center
Sun 09:12:20 PM 41.0158 -94.8797 81° East 519 597 39,000  Level Minneapolis Center
Sun 09:13:22 PM 41.0353 -94.6922 82° East 518 596 39,000  Level Minneapolis Center
Sun 09:14:24 PM 41.0572 -94.4856 82° East 520 598 39,000  Level Minneapolis Center
Sun 09:15:26 PM 41.0769 -94.2978 82° East 519 597 39,000  Level Minneapolis Center
Sun 09:16:28 PM 41.0961 -94.1089 82° East 520 598 39,000  Level Minneapolis Center
Sun 09:17:30 PM 41.1197 -93.9242 80° East 513 590 39,000  Level Minneapolis Center
Sun 09:18:32 PM 41.1461 -93.7383 79° East 514 592 39,000  Level Minneapolis Center
Sun 09:19:34 PM 41.1764 -93.5172 80° East 512 589 39,000  Level Minneapolis Center
Sun 09:20:36 PM 41.2019 -93.3297 80° East 515 593 39,000  Level Minneapolis Center
Sun 09:21:38 PM 41.2272 -93.1428 80° East 516 594 39,000  Level Minneapolis Center
Sun 09:22:40 PM 41.2519 -92.9556 80° East 516 594 39,000  Level Minneapolis Center
Sun 09:23:42 PM 41.2756 -92.7675 80° East 518 596 39,000  Level Minneapolis Center
Sun 09:24:41 PM 41.3003 -92.5778 80° East 520 598 39,000  Level Chicago Center
Sun 09:25:43 PM 41.3239 -92.3875 81° East 522 601 39,000  Level Chicago Center
Sun 09:26:45 PM 41.3525 -92.1592 80° East 523 602 39,000  Level Chicago Center
Sun 09:27:46 PM 41.3756 -91.9700 81° East 524 603 39,000  Level Chicago Center
Sun 09:28:48 PM 41.3975 -91.7814 81° East 523 602 39,000  Level Chicago Center
Sun 09:29:50 PM 41.4189 -91.5928 81° East 522 601 39,000  Level Chicago Center
Sun 09:30:52 PM 41.4419 -91.4075 81° East 518 596 39,000  Level Chicago Center
Sun 09:31:54 PM 41.4636 -91.2144 81° East 514 592 39,000  Level Chicago Center
Sun 09:32:56 PM 41.4892 -90.9886 81° East 513 590 39,000  Level Chicago Center
Sun 09:33:57 PM 41.5106 -90.8000 81° East 513 590 39,000  Level Chicago Center
Sun 09:34:59 PM 41.5306 -90.6128 82° East 511 588 39,000  Level Chicago Center
Sun 09:36:01 PM 41.5508 -90.4247 82° East 510 587 39,000  Level Chicago Center
Sun 09:37:03 PM 41.5708 -90.2353 82° East 512 589 39,000  Level Chicago Center
Sun 09:38:04 PM 41.5892 -90.0514 82° East 503 579 39,000  Level Chicago Center
Sun 09:39:06 PM 41.6089 -89.8636 82° East 507 583 39,000  Level Chicago Center
Sun 09:40:08 PM 41.6275 -89.6778 82° East 506 582 39,000  Level Chicago Center
Sun 09:41:10 PM 41.6472 -89.4914 82° East 506 582 39,000  Level Chicago Center
Sun 09:42:11 PM 41.6672 -89.2681 83° East 503 579 39,000  Level Chicago Center
Sun 09:43:13 PM 41.6833 -89.0794 83° East 509 586 39,000  Level Chicago Center
Sun 09:44:15 PM 41.7019 -88.8967 82° East 499 574 39,000  Level Chicago Center
Sun 09:45:16 PM 41.7194 -88.7133 83° East 497 572 39,000  Level Chicago Center
Sun 09:46:18 PM 41.7361 -88.5297 83° East 498 573 39,000  Level Chicago Center
Sun 09:47:20 PM 41.7522 -88.3447 83° East 502 578 39,000  Level Chicago Center
Sun 09:48:21 PM 41.7681 -88.1597 83° East 501 577 39,000  Level Chicago Center
Sun 09:49:23 PM 41.7867 -87.9536 83° East 506 582 39,000  Level Chicago Center
Sun 09:50:24 PM 41.8014 -87.7681 84° East 504 580 39,000  Level Chicago Center
Sun 09:51:26 PM 41.8158 -87.5836 84° East 503 579 39,000  Level Chicago Center
Sun 09:52:28 PM 41.8311 -87.3917 84° East 502 578 39,000  Level Chicago Center
Sun 09:53:29 PM 41.8469 -87.2044 83° East 505 581 39,000  Level Chicago Center
Sun 09:54:31 PM 41.8600 -87.0203 85° East 500 575 39,000  Level Chicago Center
Sun 09:55:32 PM 41.8775 -86.7975 84° East 500 575 39,000  Level Chicago Center
Sun 09:56:34 PM 41.8908 -86.6147 84° East 495 570 39,000  Level Chicago Center
Sun 09:57:35 PM 41.9042 -86.4306 84° East 495 570 39,000  Level Chicago Center
Sun 09:58:37 PM 41.9161 -86.2486 85° East 492 566 39,000  Level Chicago Center
Sun 09:59:38 PM 41.9292 -86.0656 84° East 491 565 39,000  Level Chicago Center
Sun 10:00:40 PM 41.9414 -85.8811 85° East 493 567 39,000  Level Chicago Center
Sun 10:01:41 PM 41.9539 -85.6956 85° East 496 571 39,000  Level Chicago Center
Sun 10:02:43 PM 41.9664 -85.5097 85° East 496 571 39,000  Level Chicago Center
Sun 10:03:44 PM 41.9781 -85.3239 85° East 495 570 39,000  Level Chicago Center
Sun 10:04:45 PM 41.9889 -85.1367 85° East 497 572 39,000  Level Chicago Center
Sun 10:05:47 PM 42.0011 -84.9294 85° East 496 571 39,000  Level Chicago Center
Sun 10:06:48 PM 42.0119 -84.7461 85° East 495 570 39,000  Level Chicago Center
Sun 10:07:49 PM 42.0222 -84.5608 86° East 498 573 39,000  Level Chicago Center
Sun 10:08:51 PM 42.0314 -84.3775 86° East 495 570 39,000  Level Chicago Center
Sun 10:09:45 PM 42.0389 -84.1872 87° East 490 564 39,000  Level Cleveland Center
Sun 10:10:45 PM 42.0486 -84.0061 86° East 497 572 39,000  Level Cleveland Center
Sun 10:11:45 PM 42.0581 -83.8247 86° East 482 555 39,000  Level Cleveland Center
Sun 10:12:45 PM 42.0672 -83.6433 86° East 477 549 39,000  Level Cleveland Center
Sun 10:13:45 PM 42.0886 -83.4625 81° East 491 565 39,000  Level Cleveland Center
Sun 10:14:45 PM 42.1097 -83.2786 81° East 491 565 39,000  Level Cleveland Center
Sun 10:15:45 PM 42.1258 -83.1114 83° East 491 565 39,000  Level Cleveland Center
Sun 10:16:45 PM 42.1464 -82.9328 81° East 481 554 39,000  Level Cleveland Center
Sun 10:17:45 PM 42.1667 -82.7514 81° East 481 554 39,000  Level Cleveland Center
Sun 10:18:45 PM 42.1844 -82.5700 82° East 481 554 39,000  Level Cleveland Center
Sun 10:19:45 PM 42.2022 -82.3856 83° East 486 559 39,000  Level Cleveland Center
Sun 10:20:45 PM 42.2214 -82.2067 82° East 486 559 39,000  Level Cleveland Center
Sun 10:21:45 PM 42.2428 -82.0219 81° East 486 559 39,000  Level Cleveland Center
Sun 10:22:45 PM 42.2594 -81.8400 83° East 486 559 39,000  Level Cleveland Center
Sun 10:23:45 PM 42.2781 -81.6550 82° East 486 559 39,000  Level Cleveland Center
Sun 10:24:45 PM 42.2942 -81.4589 84° East 486 559 39,000  Level Cleveland Center
Sun 10:25:45 PM 42.3142 -81.2767 81° East 486 559 39,000  Level Cleveland Center
Sun 10:26:45 PM 42.3300 -81.0886 83° East 486 559 39,000  Level Cleveland Center
Sun 10:27:45 PM 42.3472 -80.9119 82° East 486 559 39,000  Level Cleveland Center
Sun 10:28:45 PM 42.3600 -80.7236 85° East 491 565 39,000  Level Cleveland Center
Sun 10:29:45 PM 42.3769 -80.5383 83° East 491 565 39,000  Level Cleveland Center
Sun 10:30:45 PM 42.3933 -80.3497 83° East 496 571 39,000  Level Cleveland Center
Sun 10:31:45 PM 42.4072 -80.1614 84° East 506 582 39,000  Level Cleveland Center
Sun 10:32:45 PM 42.4211 -79.9981 83° East 501 577 39,000  Level Cleveland Center
Sun 10:33:45 PM 42.4386 -79.7925 83° East 501 577 39,000  Level Cleveland Center
Sun 10:34:45 PM 42.4519 -79.6094 84° East 496 571 39,000  Level Cleveland Center
Sun 10:35:45 PM 42.4669 -79.4181 84° East 501 577 39,000  Level Cleveland Center
Sun 10:36:45 PM 42.4817 -79.2375 84° East 496 571 39,000  Level Cleveland Center
Sun 10:37:45 PM 42.4958 -79.0483 84° East 496 571 39,000  Level Cleveland Center
Sun 10:38:45 PM 42.5078 -78.8622 85° East 496 571 39,000  Level Cleveland Center
Sun 10:39:45 PM 42.5194 -78.6761 85° East 501 577 39,000  Level Cleveland Center
Sun 10:40:45 PM 42.5331 -78.4897 84° East 496 571 39,000  Level Cleveland Center
Sun 10:41:45 PM 42.5461 -78.3033 85° East 501 577 39,000  Level Cleveland Center
Sun 10:42:45 PM 42.5569 -78.1167 85° East 501 577 39,000  Level Cleveland Center
Sun 10:43:45 PM 42.5672 -77.9331 86° East 501 577 39,000  Level Cleveland Center
Sun 10:44:45 PM 42.5781 -77.7633 85° East 496 571 39,000  Level Cleveland Center
Sun 10:45:45 PM 42.5900 -77.5794 85° East 496 571 39,000  Level Cleveland Center
Sun 10:46:45 PM 42.5994 -77.3928 86° East 496 571 39,000  Level Cleveland Center
Sun 10:49:10 PM 42.6233 -76.9556 86° East 487 560 39,000  Level Boston Center
Sun 10:50:11 PM 42.6347 -76.7700 85° East 487 560 39,000  Level Boston Center
Sun 10:51:10 PM 42.6436 -76.5900 86° East 482 555 39,000  Level Boston Center
Sun 10:52:12 PM 42.6522 -76.4069 86° East 477 549 39,000  Level Boston Center
Sun 10:53:10 PM 42.6631 -76.2069 86° East 477 549 39,000  Level Boston Center
Sun 10:54:10 PM 42.6692 -76.0239 87° East 477 549 39,000  Level Boston Center
Sun 10:55:10 PM 42.6789 -75.8436 86° East 477 549 39,000  Level Boston Center
Sun 10:56:10 PM 42.6861 -75.6603 87° East 477 549 39,000  Level Boston Center
Sun 10:57:10 PM 42.6914 -75.4711 88° East 483 556 39,000 -50 Level Boston Center
Sun 10:58:10 PM 42.6981 -75.2936 87° East 483 556 38,900 -1,230 Descending Boston Center
Sun 10:59:12 PM 42.7069 -75.1047 86° East 483 556 36,500 -2,650 Descending Boston Center
Sun 11:00:10 PM 42.7131 -74.9239 87° East 483 556 33,600 -2,847 Descending Boston Center
Sun 11:01:10 PM 42.7189 -74.7433 87° East 478 550 30,900 -2,300 Descending Boston Center
Sun 11:02:10 PM 42.7244 -74.5656 88° East 473 544 29,000 -942 Descending Boston Center
Sun 11:03:11 PM 42.7294 -74.4017 88° East 461 531 29,000  Level Boston Center
Sun 11:04:10 PM 42.7383 -74.2353 86° East 449 517 29,000  Level Boston Center
Sun 11:05:10 PM 42.7472 -74.0686 86° East 437 503 29,000  Level Boston Center
Sun 11:06:10 PM 42.7517 -73.9019 88° East 437 503 29,000 -585 Level Boston Center
Sun 11:07:13 PM 42.7597 -73.7353 86° East 437 503 27,800 -1,650 Descending Boston Center
Sun 11:08:10 PM 42.7675 -73.6025 85° East 437 503 25,700 -1,932 Descending Boston Center
Sun 11:09:11 PM 42.7778 -73.4103 86° East 436 502 24,000 -1,279 Descending Boston Center
Sun 11:10:12 PM 42.7831 -73.2519 87° East 422 486 23,100 -1,500 Descending Boston Center
Sun 11:11:11 PM 42.7883 -73.0992 87° East 417 480 21,000 -2,017 Descending Boston Center
Sun 11:12:11 PM 42.7911 -72.9381 89° East 411 473 19,100 -1,736 Descending Boston Center
Sun 11:13:12 PM 42.7978 -72.8108 86° East 397 457 17,500 -1,300 Descending Boston Center
Sun 11:14:11 PM 42.8025 -72.6664 87° East 382 440 16,500 -966 Descending Boston Center
Sun 11:15:10 PM 42.8067 -72.5278 88° East 377 434 15,600 -1,059 Descending Boston Center
Sun 11:16:10 PM 42.8108 -72.3892 88° East 367 422 14,400 -1,750 Descending Boston Center
Sun 11:17:10 PM 42.8128 -72.2392 89° East 362 417 12,100 -1,918 Descending Boston Center
Sun 11:18:12 PM 42.8167 -72.1117 88° East 351 404 10,500 -1,131 Descending Boston Center
Sun 11:19:12 PM 42.8183 -71.9900 89° East 322 371 9,800 -958 Descending Boston Center
Sun 11:20:11 PM 42.8181 -71.8797 90° East 301 346 8,600 -1,412 Descending Boston Center
Sun 11:21:11 PM 42.8153 -71.7692 92° East 289 333 7,000 -1,462 Descending Boston Center
Sun 11:22:10 PM 42.7875 -71.6733 112° Southeast 279 321 5,700 -1,109 Descending Boston Center
Sun 11:23:10 PM 42.7828 -71.5858 94° East 263 303 4,800 -1,190 Descending Boston Center
Sun 11:24:11 PM 42.8389 -71.5539 23° Northeast 197 227 3,300 -1,438 Descending Boston Center
Sun 11:25:11 PM 42.8781 -71.5108 39° Northeast 186 214 1,900 -1,240 Descending Boston Center
Sun 11:26:12 PM 42.9111 -71.4733 40° Northeast 160 184 800 -787 Descending Boston Center
Sun 11:27:13 PM 42.9378 -71.4389 43° Northeast 149 171 300 4,169 Descending Boston Center
Sun 11:28:10 PM 42.9689 -71.4017 41° Northeast 149 171 9,000 4,462 Climbing Boston Center
Sun 11:29:10 PM 42.9997 -71.3669 39° Northeast 149 171 9,000  Level Boston Center
Sun 11:30:12 PM 43.0244 -71.3381 41° Northeast 149 171 9,000  Level Boston Center
Sun 11:31:12 PM 43.0492 -71.3094 40° Northeast 149 171 9,000  Level Boston Center
Sun 11:33:00 PM 42.9328 -71.4358 316° Northwest  Level Estimated
Sun 11:40:00 PM 42.9328 -71.4358 316° Northwest  Level Estimated
Sun 11:41:00 PM 42.9328 -71.4358 316° Northwest  Level Estimated
Sun 11:42:00 PM 42.9328 -71.4358 316° Northwest  Level Estimated
Sun 11:43:00 PM 42.9328 -71.4358 316° Northwest  Level Estimated
Sun 11:44:00 PM 42.9328 -71.4358 316° Northwest  Level Estimated
Sun 11:45:00 PM 42.9328 -71.4358 316° Northwest  Level Estimated

Login

Don't have an account? Register now (free) for customized features, flight alerts, and more!